createdAt,value
2018-04-19T00:01:20.666Z,14.20
2018-04-19T00:03:48.287Z,13.17
2018-04-19T00:06:15.933Z,13.50
2018-04-19T00:08:43.496Z,13.13
2018-04-19T00:11:11.077Z,12.20
2018-04-19T00:13:38.703Z,12.60
2018-04-19T00:16:06.293Z,12.47
2018-04-19T00:18:33.925Z,11.97
2018-04-19T00:21:01.519Z,13.20
2018-04-19T00:23:29.167Z,13.07
2018-04-19T00:25:56.777Z,12.60
2018-04-19T00:28:24.371Z,11.73
2018-04-19T00:30:51.981Z,12.40
2018-04-19T00:33:19.573Z,11.57
2018-04-19T00:35:47.969Z,11.47
2018-04-19T00:38:15.529Z,11.20
2018-04-19T00:40:43.115Z,11.10
2018-04-19T00:43:10.723Z,11.07
2018-04-19T00:45:38.325Z,11.53
2018-04-19T00:48:05.950Z,11.00
2018-04-19T00:50:34.363Z,10.80
2018-04-19T00:53:08.918Z,10.50
2018-04-19T00:55:36.476Z,9.60
2018-04-19T00:58:04.093Z,11.87
2018-04-19T01:00:31.683Z,12.10
2018-04-19T01:02:59.265Z,10.40
2018-04-19T01:05:26.870Z,10.00
2018-04-19T01:07:54.496Z,9.87
2018-04-19T01:10:36.513Z,9.50
2018-04-19T01:13:04.875Z,10.57
2018-04-19T01:15:32.439Z,9.70
2018-04-19T01:18:00.013Z,9.43
2018-04-19T01:20:28.361Z,10.33
2018-04-19T01:22:56.009Z,9.90
2018-04-19T01:25:23.601Z,10.60
2018-04-19T01:27:51.188Z,9.07
2018-04-19T01:30:18.806Z,9.37
2018-04-19T01:32:46.429Z,9.47
2018-04-19T01:35:13.990Z,9.60
2018-04-19T01:37:41.565Z,9.37
2018-04-19T01:40:09.186Z,10.10
2018-04-19T01:42:36.826Z,9.53
2018-04-19T01:45:04.403Z,9.30
2018-04-19T01:47:31.973Z,10.00
2018-04-19T01:49:59.573Z,10.20
2018-04-19T01:52:27.198Z,9.70
2018-04-19T01:54:54.780Z,8.50
2018-04-19T01:57:22.349Z,10.07
2018-04-19T01:59:49.938Z,10.30
2018-04-19T02:02:17.551Z,9.20
2018-04-19T02:04:45.114Z,10.13
2018-04-19T02:07:12.812Z,9.93
2018-04-19T02:09:40.378Z,10.00
2018-04-19T02:12:07.971Z,9.47
2018-04-19T02:14:35.578Z,10.03
2018-04-19T02:17:03.155Z,10.03
2018-04-19T02:19:30.746Z,9.93
2018-04-19T02:21:58.315Z,9.77
2018-04-19T02:24:25.915Z,10.00
2018-04-19T02:26:53.487Z,11.37
2018-04-19T02:29:21.123Z,9.77
2018-04-19T02:31:48.677Z,9.50
2018-04-19T02:34:16.291Z,9.40
2018-04-19T02:36:44.689Z,10.47
2018-04-19T02:39:12.286Z,10.20
2018-04-19T02:41:39.857Z,11.27
2018-04-19T02:44:07.465Z,11.13
2018-04-19T02:46:35.114Z,10.67
2018-04-19T02:49:03.515Z,11.20
2018-04-19T02:51:31.110Z,10.37
2018-04-19T02:53:58.751Z,10.87
2018-04-19T02:56:26.366Z,10.60
2018-04-19T02:58:54.734Z,10.80
2018-04-19T03:01:22.297Z,10.80
2018-04-19T03:03:49.886Z,11.00
2018-04-19T03:06:17.456Z,10.87
2018-04-19T03:08:45.062Z,11.77
2018-04-19T03:11:12.687Z,11.20
2018-04-19T03:13:40.341Z,10.97
2018-04-19T03:16:07.922Z,11.43
2018-04-19T03:18:35.554Z,11.67
2018-04-19T03:21:03.159Z,11.40
2018-04-19T03:23:30.769Z,11.40
2018-04-19T03:25:58.340Z,11.50
2018-04-19T03:28:25.909Z,11.30
2018-04-19T03:30:53.498Z,11.43
2018-04-19T03:33:21.085Z,11.60
2018-04-19T03:35:49.443Z,11.40
2018-04-19T03:38:17.044Z,12.03
2018-04-19T03:40:44.737Z,12.60
2018-04-19T03:43:12.236Z,11.97
2018-04-19T03:45:39.862Z,12.17
2018-04-19T03:48:08.229Z,11.90
2018-04-19T03:50:35.845Z,11.93
2018-04-19T03:53:04.226Z,12.03
2018-04-19T03:55:32.567Z,11.77
2018-04-19T03:58:00.194Z,12.20
2018-04-19T04:00:27.788Z,11.67
2018-04-19T04:02:55.378Z,12.50
2018-04-19T04:05:22.936Z,12.10
2018-04-19T04:07:50.513Z,11.83
2018-04-19T04:10:18.889Z,11.50
2018-04-19T04:12:47.235Z,10.33
2018-04-19T04:15:14.845Z,10.60
2018-04-19T04:17:54.353Z,10.70
2018-04-19T04:20:33.709Z,11.10
2018-04-19T04:26:06.453Z,11.10
2018-04-19T04:28:33.984Z,11.40
2018-04-19T04:31:01.511Z,12.50
2018-04-19T04:33:29.861Z,13.23
2018-04-19T04:35:57.393Z,12.60
2018-04-19T04:38:24.921Z,13.50
2018-04-19T04:40:53.224Z,14.27
2018-04-19T04:43:20.749Z,13.03
2018-04-19T04:45:49.051Z,14.43
2018-04-19T04:48:16.576Z,14.23
2018-04-19T04:50:44.132Z,13.07
2018-04-19T04:53:11.669Z,13.30
2018-04-19T04:55:39.217Z,12.43
2018-04-19T04:58:06.738Z,12.20
2018-04-19T05:00:34.275Z,11.60
2018-04-19T05:03:01.820Z,11.97
2018-04-19T05:05:29.365Z,10.63
2018-04-19T05:07:56.897Z,11.33
2018-04-19T05:10:24.453Z,11.73
2018-04-19T05:12:51.979Z,11.40
2018-04-19T05:15:20.292Z,11.50
2018-04-19T05:17:47.849Z,11.90
2018-04-19T05:20:29.840Z,11.47
2018-04-19T05:22:57.377Z,10.90
2018-04-19T05:25:25.674Z,11.27
2018-04-19T05:27:53.235Z,11.27
2018-04-19T05:30:20.769Z,13.10
2018-04-19T05:32:49.096Z,11.83
2018-04-19T05:35:16.624Z,11.80
2018-04-19T05:37:44.169Z,12.53
2018-04-19T05:40:12.462Z,11.60
2018-04-19T05:42:40.028Z,12.37
2018-04-19T05:45:07.588Z,13.80
2018-04-19T05:47:35.123Z,14.00
2018-04-19T05:50:03.429Z,14.10
2018-04-19T05:52:30.960Z,15.13
2018-04-19T05:54:58.493Z,14.70
2018-04-19T05:57:26.033Z,15.80
2018-04-19T05:59:53.590Z,14.53
2018-04-19T06:02:21.138Z,14.50
2018-04-19T06:04:48.689Z,13.33
2018-04-19T06:07:16.216Z,14.10
2018-04-19T06:09:43.770Z,15.00
2018-04-19T06:12:12.069Z,13.50
2018-04-19T06:14:39.614Z,14.70
2018-04-19T06:17:07.154Z,13.90
2018-04-19T06:19:35.458Z,14.90
2018-04-19T06:22:02.996Z,14.67
2018-04-19T06:24:31.293Z,15.60
2018-04-19T06:26:58.844Z,14.37
2018-04-19T06:29:26.368Z,15.07
2018-04-19T06:31:53.912Z,15.30
2018-04-19T06:34:21.437Z,14.70
2018-04-19T06:36:48.993Z,14.00
2018-04-19T06:39:16.529Z,14.30
2018-04-19T06:41:44.844Z,14.37
2018-04-19T06:44:12.365Z,15.50
2018-04-19T06:46:40.661Z,15.83
2018-04-19T06:49:08.193Z,14.77
2018-04-19T06:51:36.485Z,15.90
2018-04-19T06:54:04.034Z,14.33
2018-04-19T06:56:31.568Z,15.00
2018-04-19T06:58:59.116Z,15.23
2018-04-19T07:01:26.641Z,13.70
2018-04-19T07:03:54.182Z,15.10
2018-04-19T07:06:21.712Z,15.33
2018-04-19T07:08:50.037Z,14.40
2018-04-19T07:11:17.578Z,14.73
2018-04-19T07:13:45.131Z,14.57
2018-04-19T07:16:12.660Z,10.60
2018-04-19T07:18:40.197Z,9.90
2018-04-19T07:21:07.798Z,9.03
2018-04-19T07:23:36.154Z,9.00
2018-04-19T07:26:04.525Z,8.43
2018-04-19T07:28:32.134Z,9.27
2018-04-19T07:30:59.733Z,8.43
2018-04-19T07:33:27.375Z,7.50
2018-04-19T07:35:54.955Z,7.97
2018-04-19T07:38:22.564Z,7.43
2018-04-19T07:40:50.120Z,6.93
2018-04-19T07:43:17.730Z,7.40
2018-04-19T07:45:45.363Z,7.20
2018-04-19T07:48:12.961Z,7.50
2018-04-19T07:50:40.598Z,6.90
2018-04-19T07:53:08.382Z,6.57
2018-04-19T07:55:36.027Z,6.60
2018-04-19T07:58:03.638Z,6.50
2018-04-19T08:00:32.052Z,6.40
2018-04-19T08:02:59.647Z,5.50
2018-04-19T08:05:27.253Z,5.60
2018-04-19T08:07:54.855Z,5.73
2018-04-19T08:10:47.072Z,5.33
2018-04-19T08:13:14.642Z,5.50
2018-04-19T08:15:42.257Z,4.90
2018-04-19T08:18:09.841Z,4.80
2018-04-19T08:20:37.430Z,4.90
2018-04-19T08:23:05.044Z,4.60
2018-04-19T08:25:32.659Z,4.60
2018-04-19T08:28:00.275Z,4.43
2018-04-19T08:30:27.902Z,4.17
2018-04-19T08:32:55.552Z,3.70
2018-04-19T08:35:23.148Z,3.53
2018-04-19T08:37:50.790Z,4.43
2018-04-19T08:40:18.394Z,4.07
2018-04-19T08:42:45.977Z,4.50
2018-04-19T08:45:13.546Z,4.37
2018-04-19T08:47:41.146Z,4.13
2018-04-19T08:50:08.706Z,4.80
2018-04-19T08:52:36.305Z,5.20
2018-04-19T08:55:03.881Z,6.17
2018-04-19T08:57:31.489Z,6.93
2018-04-19T08:59:59.053Z,6.57
2018-04-19T09:02:26.644Z,5.50
2018-04-19T09:04:54.287Z,5.03
2018-04-19T09:07:21.864Z,5.43
2018-04-19T09:09:49.449Z,4.77
2018-04-19T09:12:17.004Z,5.13
2018-04-19T09:14:44.633Z,4.70
2018-04-19T09:17:12.204Z,5.40
2018-04-19T09:19:39.737Z,4.40
2018-04-19T09:22:07.305Z,4.90
2018-04-19T09:24:34.849Z,4.40
2018-04-19T09:27:02.468Z,4.30
2018-04-19T09:29:30.058Z,4.20
2018-04-19T09:31:57.675Z,3.50
2018-04-19T09:34:25.243Z,4.20
2018-04-19T09:36:52.855Z,4.30
2018-04-19T09:39:20.451Z,3.87
2018-04-19T09:41:48.062Z,3.37
2018-04-19T09:44:15.747Z,2.43
2018-04-19T09:46:43.305Z,2.73
2018-04-19T09:49:10.943Z,2.43
2018-04-19T09:51:38.586Z,2.30
2018-04-19T09:54:06.232Z,2.13
2018-04-19T09:56:33.792Z,1.83
2018-04-19T09:59:13.125Z,2.03
2018-04-19T10:01:46.504Z,1.80
2018-04-19T10:04:14.332Z,1.80
2018-04-19T10:06:41.946Z,2.20
2018-04-19T10:09:09.522Z,2.00
2018-04-19T10:11:37.135Z,2.30
2018-04-19T10:14:04.778Z,2.00
2018-04-19T10:16:32.334Z,2.20
2018-04-19T10:18:59.926Z,2.30
2018-04-19T10:21:27.519Z,2.20
2018-04-19T10:23:55.041Z,1.93
2018-04-19T10:26:22.657Z,1.80
2018-04-19T10:28:51.041Z,1.83
2018-04-19T10:31:19.391Z,2.00
2018-04-19T10:33:46.970Z,1.87
2018-04-19T10:36:15.324Z,1.60
2018-04-19T11:27:48.112Z,1.87
2018-04-19T11:30:15.704Z,1.70
2018-04-19T11:32:43.302Z,1.70
2018-04-19T11:35:11.698Z,1.83
2018-04-19T11:37:39.277Z,2.33
2018-04-19T11:40:06.896Z,1.80
2018-04-19T11:42:34.511Z,2.00
2018-04-19T11:45:02.123Z,1.73
2018-04-19T11:47:29.693Z,1.77
2018-04-19T11:49:57.261Z,1.77
2018-04-19T11:52:24.832Z,1.73
2018-04-19T11:54:52.425Z,1.90
2018-04-19T11:57:20.780Z,1.80
2018-04-19T11:59:48.346Z,1.70
2018-04-19T12:02:15.997Z,2.10
2018-04-19T12:04:43.599Z,2.10
2018-04-19T12:07:11.964Z,2.13
2018-04-19T12:09:40.281Z,1.93
2018-04-19T12:12:07.861Z,2.10
2018-04-19T12:14:35.401Z,2.30
2018-04-19T12:17:02.986Z,2.20
2018-04-19T12:19:30.624Z,2.43
2018-04-19T12:21:58.181Z,1.80
2018-04-19T12:24:25.722Z,1.90
2018-04-19T12:26:53.345Z,1.93
2018-04-19T12:29:20.944Z,2.20
2018-04-19T12:31:48.555Z,2.07
2018-04-19T12:34:16.109Z,2.00
2018-04-19T12:36:43.730Z,2.10
2018-04-19T12:39:11.334Z,1.70
2018-04-19T12:41:39.006Z,2.13
2018-04-19T12:44:06.628Z,2.17
2018-04-19T12:46:34.255Z,2.20
2018-04-19T12:49:02.606Z,2.20
2018-04-19T12:51:30.196Z,1.87
2018-04-19T12:53:59.486Z,2.03
2018-04-19T12:56:27.835Z,2.10
2018-04-19T12:58:55.442Z,2.10
2018-04-19T13:01:23.068Z,2.40
2018-04-19T13:03:51.395Z,2.30
2018-04-19T13:06:18.988Z,2.70
2018-04-19T13:08:46.531Z,2.50
2018-04-19T13:11:14.160Z,2.20
2018-04-19T13:13:41.769Z,2.90
2018-04-19T13:16:09.355Z,2.30
2018-04-19T13:18:37.742Z,3.17
2018-04-19T13:21:06.074Z,2.80
2018-04-19T13:23:33.673Z,2.90
2018-04-19T13:26:02.013Z,3.10
2018-04-19T13:28:29.598Z,2.83
2018-04-19T13:30:57.171Z,3.03
2018-04-19T13:33:25.546Z,3.00
2018-04-19T13:35:53.118Z,2.93
2018-04-19T13:38:20.726Z,2.70
2018-04-19T13:40:48.320Z,3.00
2018-04-19T13:43:15.891Z,2.90
2018-04-19T13:45:44.256Z,3.40
2018-04-19T13:48:11.813Z,2.50
2018-04-19T13:50:39.440Z,2.23
2018-04-19T13:53:07.081Z,2.50
2018-04-19T13:55:34.625Z,2.93
2018-04-19T13:58:02.195Z,2.80
2018-04-19T14:00:29.816Z,2.90
2018-04-19T14:02:57.422Z,2.40
2018-04-19T14:05:24.997Z,2.83
2018-04-19T14:07:52.576Z,3.43
2018-04-19T14:10:20.205Z,3.60
2018-04-19T14:12:55.094Z,3.60
2018-04-19T14:15:22.679Z,3.00
2018-04-19T14:17:50.229Z,3.13
2018-04-19T14:20:21.551Z,4.00
2018-04-19T14:22:49.086Z,3.57
2018-04-19T14:25:16.681Z,3.50
2018-04-19T14:27:44.986Z,4.40
2018-04-19T14:30:12.545Z,3.50
2018-04-19T14:32:40.079Z,4.30
2018-04-19T14:35:08.421Z,4.00
2018-04-19T14:37:36.025Z,4.63
2018-04-19T14:40:04.351Z,4.87
2018-04-19T14:42:31.950Z,5.07
2018-04-19T14:44:59.528Z,4.60
2018-04-19T14:47:27.150Z,4.53
2018-04-19T14:49:59.018Z,5.87
2018-04-19T14:52:26.600Z,4.77
2018-04-19T14:54:54.957Z,5.00
2018-04-19T14:57:22.520Z,5.63
2018-04-19T14:59:50.129Z,6.50
2018-04-19T15:02:18.446Z,5.23
2018-04-19T15:04:46.055Z,5.80
2018-04-19T15:07:13.623Z,4.90
2018-04-19T15:09:41.194Z,5.67
2018-04-19T15:12:08.750Z,5.33
2018-04-19T15:14:36.396Z,5.40
2018-04-19T15:17:03.948Z,5.10
2018-04-19T15:19:31.494Z,6.50
2018-04-19T15:21:59.821Z,5.87
2018-04-19T15:24:27.366Z,6.30
2018-04-19T15:26:54.984Z,6.70
2018-04-19T15:29:23.311Z,6.40
2018-04-19T15:31:52.286Z,6.10
2018-04-19T15:34:19.834Z,7.03
2018-04-19T15:36:47.385Z,6.50
2018-04-19T15:39:14.951Z,7.60
2018-04-19T15:41:42.570Z,7.97
2018-04-19T15:44:10.138Z,7.83
2018-04-19T15:46:37.781Z,7.50
2018-04-19T15:49:05.394Z,7.37
2018-04-19T15:51:32.955Z,7.83
2018-04-19T15:54:00.517Z,8.00
2018-04-19T15:56:28.106Z,8.73
2018-04-19T15:58:55.706Z,6.80
2018-04-19T16:01:23.298Z,7.20
2018-04-19T16:03:50.836Z,7.40
2018-04-19T16:06:19.209Z,6.90
2018-04-19T16:08:47.575Z,6.83
2018-04-19T16:11:15.203Z,7.80
2018-04-19T16:13:42.836Z,6.57
2018-04-19T16:16:10.423Z,6.53
2018-04-19T16:18:38.049Z,6.13
2018-04-19T16:21:05.701Z,6.27
2018-04-19T16:23:33.296Z,6.20
2018-04-19T16:26:00.858Z,6.07
2018-04-19T16:28:28.439Z,7.07
2018-04-19T16:30:56.016Z,6.37
2018-04-19T16:33:23.634Z,6.40
2018-04-19T16:35:51.232Z,6.10
2018-04-19T16:38:18.855Z,5.60
2018-04-19T16:40:46.401Z,6.13
2018-04-19T16:43:14.000Z,5.60
2018-04-19T16:45:41.607Z,5.80
2018-04-19T16:48:09.234Z,5.73
2018-04-19T16:50:36.797Z,5.80
2018-04-19T16:53:04.403Z,5.87
2018-04-19T16:55:32.006Z,6.03
2018-04-19T16:57:59.570Z,5.83
2018-04-19T17:00:27.183Z,5.03
2018-04-19T17:02:54.832Z,5.57
2018-04-19T17:05:22.434Z,5.57
2018-04-19T17:07:49.981Z,5.90
2018-04-19T17:10:17.533Z,5.60
2018-04-19T17:12:45.101Z,6.03
2018-04-19T17:15:12.693Z,6.23
2018-04-19T17:17:40.296Z,5.17
2018-04-19T17:20:07.911Z,5.63
2018-04-19T17:22:35.428Z,5.57
2018-04-19T17:25:03.015Z,5.40
2018-04-19T17:27:30.640Z,5.53
2018-04-19T17:29:58.214Z,5.27
2018-04-19T17:32:25.803Z,5.57
2018-04-19T17:34:53.348Z,5.83
2018-04-19T17:37:20.999Z,5.33
2018-04-19T17:39:48.553Z,5.37
2018-04-19T17:42:16.133Z,4.70
2018-04-19T17:44:43.698Z,5.30
2018-04-19T17:47:15.520Z,5.47
2018-04-19T17:49:43.125Z,4.83
2018-04-19T17:52:10.698Z,5.03
2018-04-19T17:54:38.284Z,4.70
2018-04-19T17:57:05.859Z,5.37
2018-04-19T17:59:33.469Z,5.50
2018-04-19T18:04:53.999Z,5.87
2018-04-19T18:07:22.324Z,5.37
2018-04-19T18:09:54.581Z,5.67
2018-04-19T18:12:23.180Z,6.40
2018-04-19T18:15:09.453Z,6.50
2018-04-19T18:17:37.060Z,7.00
2018-04-19T18:23:17.626Z,7.30
2018-04-19T18:25:45.274Z,7.60
2018-04-19T18:31:12.373Z,7.80
2018-04-19T18:33:39.961Z,7.73
2018-04-19T18:36:07.618Z,7.73
2018-04-19T18:38:54.455Z,7.43
2018-04-19T18:41:22.833Z,7.57
2018-04-19T18:43:50.461Z,7.90
2018-04-19T18:46:18.050Z,8.10
2018-04-19T18:48:45.683Z,6.83
2018-04-19T18:51:13.298Z,7.23
2018-04-19T18:53:40.901Z,7.70
2018-04-19T18:56:08.518Z,8.03
2018-04-19T18:58:36.138Z,7.53
2018-04-19T19:01:03.734Z,7.50
2018-04-19T19:03:31.451Z,7.87
2018-04-19T19:06:04.734Z,7.40
2018-04-19T19:08:32.382Z,7.60
2018-04-19T19:10:59.958Z,6.70
2018-04-19T19:13:27.542Z,7.30
2018-04-19T19:19:03.274Z,6.97
2018-04-19T19:24:43.190Z,7.30
2018-04-19T19:27:11.622Z,6.97
2018-04-19T19:29:39.196Z,7.43
2018-04-19T19:32:06.844Z,7.03
2018-04-19T19:34:34.411Z,7.10
2018-04-19T19:37:17.090Z,6.80
2018-04-19T19:39:44.698Z,8.27
2018-04-19T19:42:12.277Z,7.90
2018-04-19T19:44:40.626Z,7.13
2018-04-19T19:47:08.241Z,7.50
2018-04-19T19:49:35.814Z,7.00
2018-04-19T20:01:03.761Z,7.33
2018-04-19T20:03:39.355Z,7.10
2018-04-19T20:06:07.689Z,6.67
2018-04-19T20:08:35.296Z,7.40
2018-04-19T20:11:03.674Z,7.50
2018-04-19T20:13:32.059Z,7.23
2018-04-19T20:16:00.439Z,8.10
2018-04-19T20:18:28.061Z,7.50
2018-04-19T20:20:55.639Z,7.37
2018-04-19T20:23:24.010Z,7.60
2018-04-19T20:25:51.624Z,7.73
2018-04-19T20:28:19.236Z,7.20
2018-04-19T20:30:46.886Z,7.80
2018-04-19T20:33:14.513Z,8.37
2018-04-19T20:35:42.234Z,7.60
2018-04-19T20:38:09.783Z,8.17
2018-04-19T20:40:38.265Z,7.40
2018-04-19T20:43:06.605Z,7.50
2018-04-19T20:45:34.872Z,6.93
2018-04-19T20:48:02.423Z,7.90
2018-04-19T20:50:30.038Z,7.93
2018-04-19T20:52:58.409Z,7.53
2018-04-19T20:55:26.049Z,7.80
2018-04-19T20:57:53.620Z,7.80
2018-04-19T21:00:21.303Z,7.90
2018-04-19T21:02:49.631Z,7.10
2018-04-19T21:05:17.207Z,7.80
2018-04-19T21:07:45.753Z,7.43
2018-04-19T21:10:13.365Z,7.47
2018-04-19T21:12:40.982Z,7.57
2018-04-19T21:15:08.583Z,7.70
2018-04-19T21:17:36.245Z,7.60
2018-04-19T21:20:03.830Z,7.30
2018-04-19T21:22:32.211Z,7.00
2018-04-19T21:24:59.815Z,6.70
2018-04-19T21:27:27.397Z,6.90
2018-04-19T21:29:54.985Z,7.00
2018-04-19T21:32:23.313Z,6.70
2018-04-19T21:34:50.904Z,6.20
2018-04-19T21:37:18.515Z,6.53
2018-04-19T21:39:46.918Z,6.70
2018-04-19T21:42:14.514Z,6.47
2018-04-19T21:44:42.899Z,6.60
2018-04-19T21:47:11.256Z,6.00
2018-04-19T21:49:38.877Z,6.73
2018-04-19T21:52:06.458Z,6.80
2018-04-19T21:54:34.045Z,7.10
2018-04-19T21:57:01.662Z,6.70
2018-04-19T21:59:29.268Z,7.20
2018-04-19T22:01:56.865Z,6.50
2018-04-19T22:04:24.458Z,6.50
2018-04-19T22:06:52.072Z,6.20
2018-04-19T22:09:20.431Z,6.33
2018-04-19T22:11:48.067Z,7.00
2018-04-19T22:14:15.654Z,6.60
2018-04-19T22:16:44.028Z,6.33
2018-04-19T22:19:11.609Z,6.87
2018-04-19T22:21:39.214Z,6.03
2018-04-19T22:24:06.839Z,6.37
2018-04-19T22:26:34.425Z,6.60
2018-04-19T22:29:02.052Z,6.57
2018-04-19T22:31:29.648Z,5.90
2018-04-19T22:33:57.267Z,6.07
2018-04-19T22:36:25.609Z,6.07
2018-04-19T22:38:53.201Z,6.30
2018-04-19T22:41:21.540Z,6.10
2018-04-19T22:43:49.137Z,5.67
2018-04-19T22:46:17.489Z,6.17
2018-04-19T22:48:45.095Z,5.70
2018-04-19T22:51:12.665Z,6.40
2018-04-19T22:53:40.272Z,6.13
2018-04-19T22:56:07.902Z,6.17
2018-04-19T22:58:35.561Z,6.00
2018-04-19T23:01:03.162Z,5.93
2018-04-19T23:03:30.764Z,5.03
2018-04-19T23:05:58.373Z,5.93
2018-04-19T23:08:26.234Z,6.00
2018-04-19T23:10:53.864Z,5.63
2018-04-19T23:13:21.461Z,5.63
2018-04-19T23:15:49.059Z,5.33
2018-04-19T23:18:16.689Z,5.90
2018-04-19T23:20:44.294Z,6.30
2018-04-19T23:23:11.927Z,5.57
2018-04-19T23:25:40.282Z,5.70
2018-04-19T23:28:07.877Z,5.90
2018-04-19T23:30:35.507Z,5.40
2018-04-19T23:33:03.123Z,6.47
2018-04-19T23:35:30.717Z,5.80
2018-04-19T23:37:58.341Z,5.77
2018-04-19T23:40:25.942Z,6.30
2018-04-19T23:42:53.509Z,5.83
2018-04-19T23:45:21.117Z,5.60
2018-04-19T23:47:48.726Z,5.80
2018-04-19T23:50:16.345Z,6.20
2018-04-19T23:52:43.939Z,5.87
2018-04-19T23:55:11.528Z,6.30
2018-04-19T23:57:39.864Z,6.27
